CW9914 Lugo ES current weather conditions

sailwx.info

Wind from 018 at 2 knots gusting 6

Air temperature 18.9° C
Dewpoint 18.2° C

Last reported at 2019-Sep-16 09:09 UTC.
Time now 2019-Sep-16 10:10 UTC

Location: N 43°00' W 007°33'.
View on Google Maps.

See reports from other nearby stations

  
Tides and Currents Weather Stations Pressure Air Temp Water Temp Dewpoint Dewpoint Depression Visibility Wind Speed Wind Dir Waves Ship Positions
date/time (UTC)wind fromknots sea level pressurealtimeterstation pressurevisibilityair tempwater tempwave heightnotes
2019-Sep-16 09:09 018 2 gusting 6 18.9
2019-Sep-16 09:04 008 4 gusting 10 18.9
2019-Sep-16 08:59 358 4 gusting 8 18.9
2019-Sep-16 08:54 024 4 gusting 7 18.9
2019-Sep-16 08:49 18.3
2019-Sep-16 08:44 023 5 gusting 10 18.3
2019-Sep-16 08:39 031 5 gusting 8 18.3
2019-Sep-16 08:34 030 5 gusting 6 18.3
2019-Sep-16 08:29 008 5 gusting 7 17.8
2019-Sep-16 08:24 002 5 gusting 7 17.8
2019-Sep-16 08:19 025 4 gusting 7 17.8
2019-Sep-16 08:14 017 1 gusting 7 17.8
2019-Sep-16 08:09 016 6 gusting 10 17.8
2019-Sep-16 08:04 032 6 gusting 10 17.2
2019-Sep-16 07:59 028 5 gusting 10 17.2
2019-Sep-16 07:54 028 5 gusting 8 17.2
2019-Sep-16 07:49 033 5 gusting 10 17.2
2019-Sep-16 07:44 032 4 gusting 10 17.2
2019-Sep-16 07:39 033 5 gusting 7 17.2
2019-Sep-16 07:34 039 2 gusting 8 17.2
2019-Sep-16 07:29 045 4 gusting 8 16.7
2019-Sep-16 07:24 032 5 gusting 8 16.7
2019-Sep-16 07:19 030 5 gusting 10 16.7
2019-Sep-16 07:14 036 2 gusting 7 16.7
2019-Sep-16 07:09 040 6 gusting 8 16.7
2019-Sep-16 07:04 035 2 gusting 8 16.7
2019-Sep-16 06:59 032 4 gusting 8 16.7
2019-Sep-16 06:54 027 1 gusting 6 16.7
2019-Sep-16 06:49 005 2 gusting 6 16.7
2019-Sep-16 06:44 023 2 gusting 4 16.7
2019-Sep-16 06:39 015 2 gusting 6 16.7
2019-Sep-16 06:34 357 5 gusting 7 16.7
2019-Sep-16 06:29 16.7
2019-Sep-16 06:24 018 0 gusting 2 16.7
2019-Sep-16 06:19 346 16.7
2019-Sep-16 06:14 059 0 gusting 4 16.7
2019-Sep-16 06:09 022 1 gusting 4 16.7
2019-Sep-16 06:04 025 0 gusting 4 16.7
2019-Sep-16 05:59 014 2 gusting 7 16.7
2019-Sep-16 05:54 012 1 gusting 6 16.7
2019-Sep-16 05:49 009 3 gusting 7 16.7
2019-Sep-16 05:44 007 4 gusting 6 16.7
2019-Sep-16 05:39 035 4 gusting 8 16.7
2019-Sep-16 05:34 011 5 gusting 10 16.7
2019-Sep-16 05:29 012 6 gusting 7 16.7
2019-Sep-16 05:24 001 6 gusting 10 16.7
2019-Sep-16 05:19 007 5 gusting 7 16.7
2019-Sep-16 05:14 010 6 gusting 12 16.7
2019-Sep-16 05:09 007 6 gusting 8 16.7
2019-Sep-16 05:04 16.7
2019-Sep-16 04:59 006 6 gusting 10 16.7
2019-Sep-16 04:54 001 5 gusting 7 16.7
2019-Sep-16 04:49 353 5 gusting 7 16.7
2019-Sep-16 04:44 009 4 gusting 8 16.7
2019-Sep-16 04:39 339 1 gusting 6 16.7
2019-Sep-16 04:34 352 4 gusting 8 16.7
2019-Sep-16 04:29 008 3 gusting 8 16.7
2019-Sep-16 04:24 006 4 gusting 10 16.7
2019-Sep-16 04:19 012 5 gusting 8 16.7
2019-Sep-16 04:14 013 6 gusting 10 16.7
2019-Sep-16 04:09 016 3 gusting 8 16.7
2019-Sep-16 04:04 027 5 gusting 10 16.7
2019-Sep-16 03:59 017 5 gusting 10 16.7
2019-Sep-16 03:54 014 6 gusting 10 16.1
2019-Sep-16 03:49 020 6 gusting 10 16.1
2019-Sep-16 03:44 007 6 gusting 10 16.1
2019-Sep-16 03:39 018 3 gusting 7 16.1
2019-Sep-16 03:34 003 2 gusting 6 16.1
2019-Sep-16 03:29 008 1 gusting 6 16.1
2019-Sep-16 03:24 025 1 gusting 7 16.1
2019-Sep-16 03:19 003 1 gusting 6 16.1
2019-Sep-16 03:14 043 5 gusting 7 16.1
2019-Sep-16 03:09 024 4 gusting 7 16.1
2019-Sep-16 02:59 011 5 gusting 7 16.1
2019-Sep-16 02:54 004 4 gusting 8 16.1
2019-Sep-16 02:49 358 1 gusting 6 16.1
2019-Sep-16 02:44 016 4 gusting 7 16.1
2019-Sep-16 02:39 010 6 gusting 10 16.1
2019-Sep-16 02:34 007 6 gusting 10 16.1
2019-Sep-16 02:29 009 6 gusting 10 16.1
2019-Sep-16 02:24 003 6 gusting 8 16.1
2019-Sep-16 02:19 355 5 gusting 8 16.1
2019-Sep-16 02:14 338 2 gusting 7 16.1
2019-Sep-16 02:09 354 4 gusting 6 16.1
2019-Sep-16 02:04 358 2 gusting 5 16.1
2019-Sep-16 01:59 014 16.1
2019-Sep-16 01:54 351 2 gusting 10 16.1
2019-Sep-16 01:49 16.1
2019-Sep-16 01:44 352 2 gusting 6 16.1
2019-Sep-16 01:39 005 2 gusting 6 16.1
2019-Sep-16 01:34 003 3 gusting 6 16.1
2019-Sep-16 01:29 006 4 gusting 7 16.1
2019-Sep-16 01:24 005 2 gusting 7 16.1
2019-Sep-16 01:19 028 2 gusting 7 16.1
2019-Sep-16 01:14 012 4 gusting 7 16.1
2019-Sep-16 01:09 359 4 gusting 6 16.1
2019-Sep-16 01:04 001 4 gusting 6 16.1
2019-Sep-16 00:59 350 0 gusting 2 16.1
2019-Sep-16 00:54 020 0 gusting 4 16.1
2019-Sep-16 00:49 011 2 gusting 5 16.1
2019-Sep-16 00:44 013 3 gusting 6 16.1
2019-Sep-16 00:39 028 2 gusting 5 16.1
2019-Sep-16 00:34 16.1
2019-Sep-16 00:29 16.1
2019-Sep-16 00:24 012 1 gusting 4 16.1
2019-Sep-16 00:19 16.1
2019-Sep-16 00:14 001 2 gusting 6 16.1
2019-Sep-16 00:09 358 5 gusting 6 16.1
2019-Sep-16 00:04 351 3 gusting 6 16.1
2019-Sep-15 23:59 007 1 gusting 7 16.1
2019-Sep-15 23:54 359 5 gusting 7 16.1
2019-Sep-15 23:49 358 5 gusting 7 16.1
2019-Sep-15 23:44 001 5 gusting 8 16.1
2019-Sep-15 23:39 16.7
2019-Sep-15 23:34 001 4 gusting 7 16.7
2019-Sep-15 23:29 005 5 gusting 7 16.7
2019-Sep-15 23:24 357 4 gusting 10 16.7
2019-Sep-15 23:19 357 5 gusting 10 16.7
2019-Sep-15 23:14 351 4 gusting 10 16.7
2019-Sep-15 23:09 327 2 gusting 8 16.7
2019-Sep-15 23:04 16.7
2019-Sep-15 22:58 355 5 gusting 10 16.7
2019-Sep-15 22:53 347 5 gusting 8 16.7
2019-Sep-15 22:48 348 5 gusting 7 16.7
2019-Sep-15 22:43 328 2 gusting 6 16.7
2019-Sep-15 22:38 350 2 gusting 6 16.7
2019-Sep-15 22:33 003 1 gusting 5 16.7
2019-Sep-15 22:28 351 6 gusting 10 17.2
2019-Sep-15 22:23 351 5 gusting 8 17.2
2019-Sep-15 22:18 340 5 gusting 8 17.2
2019-Sep-15 22:13 342 4 gusting 6 17.2
2019-Sep-15 22:08 342 5 gusting 7 17.2
2019-Sep-15 22:03 336 1 gusting 6 17.2
2019-Sep-15 21:58 357 4 gusting 7 17.2
2019-Sep-15 21:53 340 3 gusting 6 17.2
2019-Sep-15 21:48 17.2
2019-Sep-15 21:43 353 5 gusting 7 17.2
2019-Sep-15 21:38 004 4 gusting 7 17.2
2019-Sep-15 21:33 341 5 gusting 6 17.2
2019-Sep-15 21:28 002 3 gusting 5 17.2
2019-Sep-15 21:23 342 4 gusting 6 17.2
2019-Sep-15 21:18 305 2 gusting 6 17.2
2019-Sep-15 21:13 350 3 gusting 7 17.2
2019-Sep-15 21:08 357 4 gusting 6 17.2
2019-Sep-15 21:03 342 5 gusting 10 17.2
2019-Sep-15 20:58 002 7 gusting 10 17.2
2019-Sep-15 20:53 348 6 gusting 12 17.2
2019-Sep-15 20:48 354 4 gusting 7 17.8
2019-Sep-15 20:43 347 5 gusting 7 17.8
2019-Sep-15 20:38 350 5 gusting 10 17.8
2019-Sep-15 20:33 350 4 gusting 10 17.8
2019-Sep-15 20:28 347 3 gusting 7 17.8
2019-Sep-15 20:23 352 4 gusting 6 17.8
2019-Sep-15 20:18 345 5 gusting 8 18.3
2019-Sep-15 20:13 339 2 gusting 6 18.3
2019-Sep-15 20:08 324 1 gusting 4 18.3
2019-Sep-15 20:03 18.3
2019-Sep-15 19:58 329 1 gusting 4 18.3
2019-Sep-15 19:53 320 0 gusting 4 18.3
2019-Sep-15 19:48 328 1 gusting 6 18.3
2019-Sep-15 19:43 350 1 gusting 6 18.3
2019-Sep-15 19:38 012 1 gusting 8 18.3
2019-Sep-15 19:33 358 4 gusting 7 18.3
2019-Sep-15 19:28 002 6 gusting 10 18.3
2019-Sep-15 19:23 006 6 gusting 11 18.3
2019-Sep-15 19:18 18.3
2019-Sep-15 19:13 002 6 gusting 12 18.9
2019-Sep-15 19:08 003 6 gusting 11 18.9
2019-Sep-15 19:03 015 6 gusting 12 18.9
2019-Sep-15 18:58 017 7 gusting 11 18.9
2019-Sep-15 18:53 018 7 gusting 11 18.9
2019-Sep-15 18:48 014 7 gusting 11 19.4
2019-Sep-15 18:43 014 8 gusting 13 19.4
2019-Sep-15 18:38 013 8 gusting 12 19.4
2019-Sep-15 18:33 015 7 gusting 11 20.0
2019-Sep-15 18:28 010 6 gusting 10 20.0
2019-Sep-15 18:23 006 6 gusting 10 20.6
2019-Sep-15 18:18 026 5 gusting 10 20.6
2019-Sep-15 18:13 051 3 gusting 10 20.6
2019-Sep-15 18:08 022 3 gusting 12 21.1
2019-Sep-15 18:03 010 4 gusting 10 21.1
2019-Sep-15 17:58 022 4 gusting 12 21.1
2019-Sep-15 17:53 013 6 gusting 12 21.1
2019-Sep-15 17:48 016 7 gusting 13 21.7
2019-Sep-15 17:43 011 6 gusting 15 21.7
2019-Sep-15 17:38 006 8 gusting 13 21.7
2019-Sep-15 17:33 004 7 gusting 13 22.2
2019-Sep-15 17:28 023 2 gusting 13 22.2
2019-Sep-15 17:23 010 10 gusting 13 22.2
2019-Sep-15 17:18 010 8 gusting 13 22.2
2019-Sep-15 17:13 350 8 gusting 13 22.8
2019-Sep-15 17:08 005 8 gusting 12 22.8
2019-Sep-15 17:03 002 4 gusting 12 22.8
2019-Sep-15 16:58 329 6 gusting 11 23.3
2019-Sep-15 16:53 350 7 gusting 11 23.3
2019-Sep-15 16:48 011 3 gusting 12 23.3
2019-Sep-15 16:43 346 6 gusting 10 23.3
2019-Sep-15 16:38 002 7 gusting 12 23.3
2019-Sep-15 16:33 015 9 gusting 15 23.9
2019-Sep-15 16:28 005 8 gusting 14 24.4
2019-Sep-15 16:23 011 8 gusting 13 24.4
2019-Sep-15 16:18 025 5 gusting 14 24.4
2019-Sep-15 16:13 019 7 gusting 14 24.4
2019-Sep-15 16:08 003 6 gusting 14 24.4
2019-Sep-15 16:03 015 10 gusting 14 24.4
2019-Sep-15 15:58 007 10 gusting 14 25.0
2019-Sep-15 15:53 032 4 gusting 13 25.0
2019-Sep-15 15:48 015 10 gusting 14 25.0
2019-Sep-15 15:43 004 10 gusting 13 25.0
2019-Sep-15 15:38 029 8 gusting 17 25.6
2019-Sep-15 15:33 007 8 gusting 14 25.6
2019-Sep-15 15:28 001 11 gusting 19 25.6
2019-Sep-15 15:23 012 9 gusting 19 26.1
2019-Sep-15 15:18 352 8 gusting 13 26.1
2019-Sep-15 15:13 358 7 gusting 13 26.1
2019-Sep-15 15:08 014 9 gusting 17 26.7
2019-Sep-15 15:03 039 6 gusting 13 26.7
2019-Sep-15 14:58 005 5 gusting 8 26.1
2019-Sep-15 14:53 011 7 gusting 13 26.1
2019-Sep-15 14:48 006 8 gusting 14 26.7
2019-Sep-15 14:43 022 7 gusting 10 26.7
2019-Sep-15 14:38 021 6 gusting 10 26.7
2019-Sep-15 14:33 355 4 gusting 10 26.7
2019-Sep-15 14:28 354 4 gusting 11 26.7
2019-Sep-15 14:23 010 2 gusting 10 26.7
2019-Sep-15 14:18 023 4 gusting 6 26.1
2019-Sep-15 14:13 021 2 gusting 8 26.1
2019-Sep-15 14:08 004 6 gusting 10 25.6
2019-Sep-15 14:03 005 6 gusting 10 25.6
2019-Sep-15 13:58 012 6 gusting 12 25.6
2019-Sep-15 13:53 356 4 gusting 13 25.6
2019-Sep-15 13:48 25.6
2019-Sep-15 13:43 017 3 gusting 6 26.1
2019-Sep-15 13:38 030 5 gusting 8 25.6
2019-Sep-15 13:33 350 5 gusting 8 25.0
2019-Sep-15 13:28 355 5 gusting 11 25.0
2019-Sep-15 13:23 018 6 gusting 11 25.0
2019-Sep-15 13:18 013 4 gusting 10 25.0
2019-Sep-15 13:13 001 4 gusting 10 25.0
2019-Sep-15 13:08 323 6 gusting 10 25.0
2019-Sep-15 13:03 337 3 gusting 6 24.4
2019-Sep-15 12:58 015 5 gusting 8 24.4
2019-Sep-15 12:53 350 7 gusting 11 24.4
2019-Sep-15 12:48 340 5 gusting 10 24.4
2019-Sep-15 12:43 003 5 gusting 8 24.4
2019-Sep-15 12:38 333 5 gusting 10 23.9
2019-Sep-15 12:33 333 6 gusting 10 23.9
2019-Sep-15 12:28 358 6 gusting 10 23.9
2019-Sep-15 12:23 006 6 gusting 12 23.9
2019-Sep-15 12:18 351 6 gusting 10 23.9
2019-Sep-15 12:13 350 2 gusting 8 23.9
2019-Sep-15 12:08 349 1 gusting 6 23.9
2019-Sep-15 12:03 305 4 gusting 7 23.3
2019-Sep-15 11:58 23.3
2019-Sep-15 11:53 357 5 gusting 10 23.3
2019-Sep-15 11:48 354 5 gusting 10 23.3
2019-Sep-15 11:43 301 1 gusting 6 22.8
2019-Sep-15 11:38 354 2 gusting 6 22.8
2019-Sep-15 11:33 356 4 gusting 7 22.2
2019-Sep-15 11:28 028 2 gusting 5 22.2
2019-Sep-15 11:23 011 0 gusting 5 21.7
2019-Sep-15 11:18 329 4 gusting 6 21.7
2019-Sep-15 11:13 322 2 gusting 6 21.7
2019-Sep-15 11:08 009 1 gusting 6 21.1
2019-Sep-15 11:03 313 1 gusting 6 20.6
2019-Sep-15 10:58 20.6
2019-Sep-15 10:53 314 1 gusting 6 20.6
2019-Sep-15 10:48 339 4 gusting 6 20.0
2019-Sep-15 10:43 340 3 gusting 6 20.0
2019-Sep-15 10:38 19.4
2019-Sep-15 10:33 359 5 gusting 8 19.4
2019-Sep-15 10:28 004 2 gusting 5 19.4
2019-Sep-15 10:23 006 2 gusting 5 18.9
2019-Sep-15 10:18 293 2 gusting 6 18.9
2019-Sep-15 10:13 334 4 gusting 6 18.9
2019-Sep-15 10:08 323 3 gusting 7 18.3
2019-Sep-15 10:03 351 4 gusting 6 18.3
2019-Sep-15 09:58 319 4 gusting 6 18.3
2019-Sep-15 09:53 325 2 gusting 6 18.3
2019-Sep-15 09:48 342 2 gusting 4 18.3
2019-Sep-15 09:43 216 18.3
2019-Sep-15 09:38 355 1 gusting 4 18.3
2019-Sep-15 09:33 340 1 gusting 2 18.3
2019-Sep-15 09:28 334 17.8
2019-Sep-15 09:23 017 0 gusting 2 17.8
2019-Sep-15 09:18 306 17.2
2019-Sep-15 09:13 320 17.2
2019-Sep-15 09:08 346 2 gusting 4 17.2
2019-Sep-15 09:03 005 2 gusting 2 17.2
2019-Sep-15 08:58 064 4 gusting 6 17.2
2019-Sep-15 08:53 047 1 gusting 6 17.2
2019-Sep-15 08:48 004 2 gusting 5 17.2
2019-Sep-15 08:43 024 4 gusting 5 16.7
2019-Sep-15 08:38 343 2 gusting 6 16.7
2019-Sep-15 08:33 358 2 gusting 5 16.7
2019-Sep-15 08:28 045 2 gusting 5 16.7
2019-Sep-15 08:23 017 1 gusting 4 16.7
2019-Sep-15 08:18 025 1 gusting 4 16.7
2019-Sep-15 08:13 011 2 gusting 2 16.7
2019-Sep-15 08:08 033 1 gusting 5 16.7
2019-Sep-15 08:03 16.7
2019-Sep-15 07:58 16.7
2019-Sep-15 07:53 001 4 gusting 6 16.7
2019-Sep-15 07:48 020 2 gusting 4 16.1
2019-Sep-15 07:43 354 1 gusting 6 16.1
2019-Sep-15 07:38 014 2 gusting 6 16.1
2019-Sep-15 07:33 012 4 gusting 7 16.1
2019-Sep-15 07:28 003 5 gusting 7 16.1
2019-Sep-15 07:23 005 1 gusting 5 16.1
2019-Sep-15 07:18 020 16.1
2019-Sep-15 07:13 043 0 gusting 2 16.1
2019-Sep-15 07:08 357 2 gusting 6 16.1
2019-Sep-15 07:03 026 3 gusting 7 16.1
2019-Sep-15 06:58 16.1
2019-Sep-15 06:53 006 5 gusting 8 16.1
2019-Sep-15 06:48 021 1 gusting 7 16.1
2019-Sep-15 06:43 16.1
2019-Sep-15 06:38 026 4 gusting 6 16.1
2019-Sep-15 06:33 002 2 gusting 5 16.1
2019-Sep-15 06:28 008 4 gusting 7 16.1
2019-Sep-15 06:23 357 5 gusting 10 16.1
2019-Sep-15 06:18 001 2 gusting 8 16.1
2019-Sep-15 06:13 16.1
2019-Sep-15 06:08 337 5 gusting 7 16.1
2019-Sep-15 06:03 357 0 gusting 6 16.1
2019-Sep-15 05:58 348 2 gusting 6 16.1
2019-Sep-15 05:53 001 2 gusting 6 16.1
2019-Sep-15 05:48 008 4 gusting 6 16.1
2019-Sep-15 05:43 16.1
2019-Sep-15 05:38 355 4 gusting 8 16.1
2019-Sep-15 05:33 013 4 gusting 6 16.1
2019-Sep-15 05:28 345 2 gusting 6 16.1
2019-Sep-15 05:23 356 4 gusting 6 16.1
2019-Sep-15 05:18 349 2 gusting 7 16.1
2019-Sep-15 05:13 352 5 gusting 10 16.1
2019-Sep-15 05:08 356 5 gusting 7 16.1
2019-Sep-15 05:03 356 6 gusting 8 16.1
2019-Sep-15 04:58 011 4 gusting 6 16.1
2019-Sep-15 04:53 16.1
2019-Sep-15 04:48 357 5 gusting 8 16.1
2019-Sep-15 04:43 003 5 gusting 8 16.1
2019-Sep-15 04:38 016 4 gusting 8 16.1
2019-Sep-15 04:33 012 5 gusting 8 16.1
2019-Sep-15 04:28 011 3 gusting 6 16.1
2019-Sep-15 04:23 15.6
2019-Sep-15 04:18 355 4 gusting 10 15.6
2019-Sep-15 04:14 002 7 gusting 12 15.6
2019-Sep-15 04:08 356 7 gusting 12 16.1
2019-Sep-15 04:03 004 5 gusting 7 16.1
2019-Sep-15 03:58 330 2 gusting 6 16.1
2019-Sep-15 03:54 017 4 gusting 6 16.1
2019-Sep-15 03:48 359 4 gusting 8 16.1
2019-Sep-15 03:43 011 3 gusting 6 16.1
2019-Sep-15 03:38 023 2 gusting 6 15.6
2019-Sep-15 03:33 350 4 gusting 6 15.6
2019-Sep-15 03:28 15.6
2019-Sep-15 03:23 006 1 gusting 5 15.6
2019-Sep-15 03:18 350 3 gusting 7 15.6
2019-Sep-15 03:13 357 5 gusting 6 15.6
2019-Sep-15 03:08 352 5 gusting 6 15.6
2019-Sep-15 03:03 319 0 gusting 4 15.6
2019-Sep-15 02:58 320 0 gusting 2 15.6
2019-Sep-15 02:53 291 1 gusting 2 15.6
2019-Sep-15 02:48 279 1 gusting 2 15.6
2019-Sep-15 02:43 284 1 gusting 2 16.1
2019-Sep-15 02:38 284 16.1
2019-Sep-15 02:33 323 1 gusting 5 16.1
2019-Sep-15 02:28 353 3 gusting 6 16.1
2019-Sep-15 02:23 344 3 gusting 6 16.1
2019-Sep-15 02:18 323 0 gusting 2 16.1
2019-Sep-15 02:13 358 2 gusting 6 16.1
2019-Sep-15 02:08 322 16.1
2019-Sep-15 02:03 023 1 gusting 7 16.1
2019-Sep-15 01:58 350 2 gusting 7 16.1
2019-Sep-15 01:53 353 4 gusting 6 16.1
2019-Sep-15 01:48 16.1
2019-Sep-15 01:43 343 2 gusting 6 16.1
2019-Sep-15 01:38 351 4 gusting 6 16.1
2019-Sep-15 01:33 353 2 gusting 6 16.1
2019-Sep-15 01:28 343 3 gusting 6 16.1
2019-Sep-15 01:23 335 1 gusting 5 16.1
2019-Sep-15 01:18 007 2 gusting 5 16.1
2019-Sep-15 01:13 348 4 gusting 6 16.1
2019-Sep-15 01:08 029 1 gusting 5 16.1
2019-Sep-15 01:03 354 1 gusting 6 16.1
2019-Sep-15 00:58 294 1 gusting 4 16.1
2019-Sep-15 00:53 357 1 gusting 4 16.1
2019-Sep-15 00:48 346 0 gusting 2 16.1
2019-Sep-15 00:43 331 0 gusting 5 16.1
2019-Sep-15 00:38 302 16.1
2019-Sep-15 00:33 320 16.1
2019-Sep-15 00:28 007 2 gusting 6 16.7
2019-Sep-15 00:23 346 4 gusting 6 16.7
2019-Sep-15 00:18 339 2 gusting 6 16.7
2019-Sep-15 00:13 354 3 gusting 6 16.7
2019-Sep-15 00:08 335 3 gusting 6 16.1
2019-Sep-15 00:03 351 0 gusting 2 16.1
2019-Sep-14 23:58 306 1 gusting 2 16.1
2019-Sep-14 23:53 323 1 gusting 2 16.1
2019-Sep-14 23:48 292 0 gusting 2 16.1
2019-Sep-14 23:43 316 1 gusting 2 16.1
2019-Sep-14 23:38 291 1 gusting 2 16.7
2019-Sep-14 23:33 320 0 gusting 4 16.7
2019-Sep-14 23:28 340 2 gusting 5 16.7
2019-Sep-14 23:23 352 2 gusting 6 16.7
2019-Sep-14 23:18 338 2 gusting 5 16.7
2019-Sep-14 23:13 346 1 gusting 5 16.7
2019-Sep-14 23:08 303 1 gusting 4 16.7
2019-Sep-14 23:03 343 3 gusting 5 16.7
2019-Sep-14 22:58 354 4 gusting 6 16.7
2019-Sep-14 22:53 355 4 gusting 7 16.7
2019-Sep-14 22:48 001 4 gusting 6 16.7
2019-Sep-14 22:43 002 2 gusting 7 16.7
2019-Sep-14 22:38 356 4 gusting 6 16.7
2019-Sep-14 22:33 355 4 gusting 6 16.7
2019-Sep-14 22:28 16.7
2019-Sep-14 22:23 345 6 gusting 10 16.7
2019-Sep-14 22:18 348 5 gusting 8 16.7
2019-Sep-14 22:13 351 3 gusting 6 16.7
2019-Sep-14 22:08 343 1 gusting 5 16.7
2019-Sep-14 22:03 002 0 gusting 2 16.7
2019-Sep-14 21:58 341 1 gusting 7 16.7
2019-Sep-14 21:53 333 4 gusting 6 16.7
2019-Sep-14 21:48 332 2 gusting 7 16.7
2019-Sep-14 21:43 001 6 gusting 10 16.7
2019-Sep-14 21:38 002 5 gusting 10 17.2
2019-Sep-14 21:33 005 5 gusting 8 17.2
2019-Sep-14 21:28 358 4 gusting 8 17.2
2019-Sep-14 21:23 352 5 gusting 11 17.2
2019-Sep-14 21:18 358 6 gusting 11 17.2
2019-Sep-14 21:13 346 7 gusting 12 17.2
2019-Sep-14 21:08 355 6 gusting 12 17.2
2019-Sep-14 21:03 349 6 gusting 12 17.2
2019-Sep-14 20:58 17.2
2019-Sep-14 20:53 358 6 gusting 12 17.2
2019-Sep-14 20:48 357 8 gusting 13 17.2
2019-Sep-14 20:43 17.2
2019-Sep-14 20:38 348 8 gusting 13 17.2
2019-Sep-14 20:33 358 6 gusting 10 17.2
2019-Sep-14 20:28 346 6 gusting 10 17.8
2019-Sep-14 20:23 350 5 gusting 10 17.8
2019-Sep-14 20:18 341 4 gusting 7 17.8
2019-Sep-14 20:13 346 5 gusting 10 17.8
2019-Sep-14 20:08 002 5 gusting 10 17.8
2019-Sep-14 20:03 356 5 gusting 10 17.8
2019-Sep-14 19:58 359 6 gusting 10 17.8
2019-Sep-14 19:53 355 6 gusting 11 17.8
2019-Sep-14 19:48 350 6 gusting 11 17.8
2019-Sep-14 19:43 342 5 gusting 8 17.8
2019-Sep-14 19:38 354 5 gusting 12 17.8
2019-Sep-14 19:33 341 4 gusting 8 17.8
2019-Sep-14 19:28 344 7 gusting 11 17.8
2019-Sep-14 19:23 359 4 gusting 7 18.3
2019-Sep-14 19:18 004 5 gusting 10 18.3
2019-Sep-14 19:13 18.3
2019-Sep-14 19:08 002 6 gusting 11 18.3
2019-Sep-14 19:03 007 5 gusting 10 18.3
2019-Sep-14 18:58 357 4 gusting 8 18.9
2019-Sep-14 18:53 357 4 gusting 10 18.9
2019-Sep-14 18:48 346 2 gusting 6 18.9
2019-Sep-14 18:43 358 5 gusting 11 18.9
2019-Sep-14 18:38 356 6 gusting 15 18.9
2019-Sep-14 18:33 021 9 gusting 17 19.4
2019-Sep-14 18:28 005 10 gusting 17 19.4
2019-Sep-14 18:23 002 9 gusting 17 19.4
2019-Sep-14 18:18 014 10 gusting 17 20.0
2019-Sep-14 18:13 358 10 gusting 17 20.0
2019-Sep-14 18:08 003 7 gusting 12 20.6
2019-Sep-14 18:03 012 10 gusting 15 20.6
2019-Sep-14 17:58 002 7 gusting 14 20.6
2019-Sep-14 17:53 006 7 gusting 13 21.1
2019-Sep-14 17:48 012 6 gusting 13 21.1
2019-Sep-14 17:43 357 9 gusting 13 21.7
2019-Sep-14 17:38 009 6 gusting 12 21.7
2019-Sep-14 17:33 014 10 gusting 15 21.7
2019-Sep-14 17:28 007 10 gusting 14 22.2
2019-Sep-14 17:23 021 8 gusting 15 22.8
2019-Sep-14 17:18 015 8 gusting 12 22.8
2019-Sep-14 17:13 014 8 gusting 13 23.3
2019-Sep-14 17:08 030 6 gusting 14 23.9
2019-Sep-14 17:03 020 5 gusting 13 23.9
2019-Sep-14 16:58 012 5 gusting 13 23.9
2019-Sep-14 16:53 013 7 gusting 14 23.9
2019-Sep-14 16:48 005 6 gusting 17 23.9
2019-Sep-14 16:43 020 5 gusting 17 24.4
2019-Sep-14 16:38 017 12 gusting 18 24.4
2019-Sep-14 16:33 001 7 gusting 10 25.0
2019-Sep-14 16:28 007 6 gusting 11 25.0
2019-Sep-14 16:23 014 2 gusting 11 25.6
2019-Sep-14 16:18 037 8 gusting 13 25.6
2019-Sep-14 16:13 025 7 gusting 13 25.6
2019-Sep-14 16:08 015 6 gusting 12 25.6
2019-Sep-14 16:03 002 10 gusting 19 25.6
2019-Sep-14 15:58 027 13 gusting 18 25.6
2019-Sep-14 15:53 044 7 gusting 19 26.1
2019-Sep-14 15:48 032 8 gusting 17 25.6
2019-Sep-14 15:43 028 11 gusting 21 25.6
2019-Sep-14 15:38 027 10 gusting 17 25.6
2019-Sep-14 15:33 019 9 gusting 17 25.6
2019-Sep-14 15:28 025 11 gusting 19 25.0
2019-Sep-14 15:23 015 12 gusting 19 25.6
2019-Sep-14 15:18 25.6
2019-Sep-14 15:13 009 12 gusting 18 25.6
2019-Sep-14 15:08 004 10 gusting 17 25.6
2019-Sep-14 15:03 002 10 gusting 14 25.6
2019-Sep-14 14:58 010 8 gusting 15 25.6
2019-Sep-14 14:53 012 11 gusting 15 25.6
2019-Sep-14 14:48 25.6
2019-Sep-14 14:43 004 12 gusting 17 25.6
2019-Sep-14 14:38 008 6 gusting 15 25.6
2019-Sep-14 14:33 006 10 gusting 14 25.6
2019-Sep-14 14:28 010 9 gusting 15 25.6
2019-Sep-14 14:23 014 8 gusting 13 25.6
2019-Sep-14 14:18 007 11 gusting 15 25.6
2019-Sep-14 14:13 008 10 gusting 17 25.6
2019-Sep-14 14:08 007 10 gusting 14 25.6
2019-Sep-14 14:03 039 8 gusting 15 25.6
2019-Sep-14 13:58 015 6 gusting 14 26.1
2019-Sep-14 13:53 26.1
2019-Sep-14 13:48 357 6 gusting 13 25.6
2019-Sep-14 13:43 010 8 gusting 13 25.6
2019-Sep-14 13:38 008 8 gusting 15 25.6
2019-Sep-14 13:33 25.6
2019-Sep-14 13:28 356 8 gusting 13 25.6
2019-Sep-14 13:23 025 6 gusting 14 25.6
2019-Sep-14 13:18 355 8 gusting 17 25.6
2019-Sep-14 13:13 036 9 gusting 13 25.6
2019-Sep-14 13:08 010 6 gusting 15 25.6
2019-Sep-14 13:03 020 8 gusting 13 25.6
2019-Sep-14 12:58 012 8 gusting 19 25.0
2019-Sep-14 12:53 008 6 gusting 13 25.6
2019-Sep-14 12:48 055 5 gusting 11 25.0
2019-Sep-14 12:43 017 5 gusting 15 24.4
2019-Sep-14 12:38 351 9 gusting 13 24.4
2019-Sep-14 12:33 317 7 gusting 12 25.0
2019-Sep-14 12:28 043 5 gusting 11 25.0
2019-Sep-14 12:23 018 4 gusting 10 25.0
2019-Sep-14 12:18 061 0 gusting 6 24.4
2019-Sep-14 12:13 029 3 gusting 8 24.4
2019-Sep-14 12:08 005 6 gusting 14 23.9
2019-Sep-14 12:03 002 5 gusting 10 23.9
2019-Sep-14 11:58 351 4 gusting 7 23.3
2019-Sep-14 11:53 002 2 gusting 12 22.8
2019-Sep-14 11:48 350 7 gusting 13 22.2
2019-Sep-14 11:43 003 7 gusting 11 22.2
2019-Sep-14 11:38 356 7 gusting 11 22.2
2019-Sep-14 11:33 356 7 gusting 8 22.2
2019-Sep-14 11:28 347 3 gusting 10 21.7
2019-Sep-14 11:23 340 5 gusting 8 21.1
2019-Sep-14 11:18 017 4 gusting 8 21.1
2019-Sep-14 11:13 343 5 gusting 10 21.1
2019-Sep-14 11:08 008 5 gusting 10 21.1
2019-Sep-14 11:03 349 1 gusting 6 20.6
2019-Sep-14 10:58 346 5 gusting 8 20.6
2019-Sep-14 10:53 002 6 gusting 10 20.0
2019-Sep-14 10:48 346 5 gusting 8 20.0
2019-Sep-14 10:43 005 6 gusting 8 20.0
2019-Sep-14 10:38 357 4 gusting 10 20.0
2019-Sep-14 10:33 006 2 gusting 6 19.4
2019-Sep-14 10:28 344 4 gusting 8 19.4
2019-Sep-14 10:23 336 4 gusting 10 19.4
2019-Sep-14 10:18 343 3 gusting 6 19.4
2019-Sep-14 10:13 18.9
2019-Sep-14 10:08 015 6 gusting 11 18.9
2019-Sep-14 10:03 016 8 gusting 12 18.9